Valley International Airport
KHRL : now visible

Airfield :











YOU CAN JOIN US ON...

 
LOGIN :

Register | Disclaimer

   EN    FR    IT 

 









Legend :    VFR   Marginal VFR   IFR   Intensive IFR   Very Intensive IFR
Visi :
Ceiling :
>= 8 km
>= 3000ft
5 to 8 km
1000 to 3000 ft
1500m to 5 km
500 to 1000 ft
800 to 1500m
200 to 500 ft
< 800m
< 200 ft
Symbols :   Thunderstorms  Fog  Heavy snow  Heavy precipitations  Wind > 20 kt






- Airport Elevation : 36 ft
- IATA code : HRL


KHRL - Valley International

CURRENT METAR :
  • 181252Z 16011KT 10SM OVC016 25/23 A2991 RMK AO2 SLP129 T02500233

EXPIRED METARs :
  • 181152Z 16007KT 10SM OVC015 24/22 A2991 RMK AO2 SLP127 T02390222 10250 20233 53009
  • 181123Z 16007KT 10SM OVC014 24/23 A2990 RMK AO2 T02390228
  • 181052Z 16009KT 10SM OVC016 24/22 A2989 RMK AO2 SLP121 T02390222

TAF KHRL
Valid from the 18 at 12:00 until the 19 at 12:00 UTC


181127Z 1812/1912 16009KT P6SM FEW016
TEMPO 1812/1813 BKN016
FM181400 16015KT P6SM FEW250
FM181600 17020G28KT P6SM SCT250
FM190200 14015KT P6SM SCT250
FM191000 16012KT P6SM OVC025
KZHU FIR / North America



MET'MAP, your aeronautical weather chart ! - Copyright ORBIFLY December 2007 - Disclaimer

ORBIFLY MET'MAP TEAM :

Programming & Development : Alexandra Zaïnal
Original concept : Baudouin d'Aumeries
Technical & hardware support : Manuel Goepfert
Assistance : Marc-Olivier Méhu

Contact : metmap@orbifly.com




SOURCES & CREDITS :

   NOAA       Earth
Advisory